Time;durP1;ratioP1;P1;durP2;ratioP2;P2;SDS_P1;SDS_P2;PMS_P1;PMS_P2;Temp;Humidity;BMP_temperature;BMP_pressure;BME280_temperature;BME280_humidity;BME280_pressure;Samples;Min_cycle;Max_cycle;Signal;HPM_P1;HPM_P2
2024/02/13 00:00:55;;;;;;;4.30;3.90;;;9.70;99.90;;;;;;5064670;28;20433;-25
2024/02/13 00:03:22;;;;;;;5.47;4.30;;;9.70;99.90;;;;;;5045236;28;20465;-25
2024/02/13 00:05:51;;;;;;;4.27;3.83;;;9.70;99.90;;;;;;5051933;28;20444;-25
2024/02/13 00:08:20;;;;;;;5.23;4.00;;;9.70;99.90;;;;;;5042050;28;20433;-25
2024/02/13 00:10:47;;;;;;;4.40;4.00;;;9.70;99.90;;;;;;5087346;28;20480;-25
2024/02/13 00:13:14;;;;;;;6.70;3.90;;;9.70;99.90;;;;;;5065386;28;20535;-25
2024/02/13 00:15:45;;;;;;;5.97;4.03;;;9.70;99.90;;;;;;5053330;28;20512;-25
2024/02/13 00:18:11;;;;;;;7.50;4.10;;;9.60;99.90;;;;;;5057046;28;20421;-25
2024/02/13 00:20:39;;;;;;;4.30;3.90;;;9.70;99.90;;;;;;5085223;28;21035;-25
2024/02/13 00:23:07;;;;;;;6.03;3.50;;;9.60;99.90;;;;;;5091176;28;20930;-25
2024/02/13 00:25:37;;;;;;;4.50;3.60;;;9.60;99.90;;;;;;5085595;28;20838;-25
2024/02/13 00:28:04;;;;;;;4.90;4.23;;;9.60;99.90;;;;;;5034940;28;20432;-25
2024/02/13 00:30:35;;;;;;;4.40;4.00;;;9.60;99.90;;;;;;5086480;28;20487;-25
2024/02/13 00:33:24;;;;;;;4.47;4.00;;;9.60;99.90;;;;;;5072014;28;20559;-25
2024/02/13 00:36:12;;;;;;;6.33;3.87;;;9.60;99.90;;;;;;5078015;28;20461;-25
2024/02/13 00:38:40;;;;;;;4.93;3.90;;;9.60;99.90;;;;;;5061899;28;20942;-25
2024/02/13 00:41:06;;;;;;;4.40;4.00;;;9.60;99.90;;;;;;5053974;28;21130;-26
2024/02/13 00:43:37;;;;;;;4.20;3.50;;;9.50;99.90;;;;;;5058730;28;20452;-25
2024/02/13 00:46:03;;;;;;;6.10;3.90;;;9.50;99.90;;;;;;5093008;28;20429;-25
2024/02/13 00:48:32;;;;;;;7.17;4.27;;;9.50;99.90;;;;;;5070546;28;20456;-25
2024/02/13 00:51:01;;;;;;;6.90;4.60;;;9.50;99.90;;;;;;5071422;28;20456;-24
2024/02/13 00:53:27;;;;;;;4.50;4.07;;;9.50;99.90;;;;;;5085361;28;20978;-25
2024/02/13 00:55:58;;;;;;;5.07;3.43;;;9.50;99.90;;;;;;5091747;28;20420;-25
2024/02/13 00:58:25;;;;;;;7.97;4.53;;;9.50;99.90;;;;;;5061158;28;20434;-25
2024/02/13 01:00:53;;;;;;;5.20;4.03;;;9.50;99.90;;;;;;5081407;28;20477;-24
2024/02/13 01:03:19;;;;;;;6.53;4.47;;;9.50;99.90;;;;;;5065885;28;20452;-25
2024/02/13 01:05:48;;;;;;;5.70;3.80;;;9.40;99.90;;;;;;5092647;28;20439;-27
2024/02/13 01:08:23;;;;;;;4.93;4.10;;;9.50;99.90;;;;;;5064337;28;20424;-25
2024/02/13 01:10:52;;;;;;;4.77;3.90;;;9.50;99.90;;;;;;5040692;28;20463;-25
2024/02/13 01:13:18;;;;;;;4.57;4.13;;;9.40;99.90;;;;;;5043186;28;20437;-25
2024/02/13 01:15:45;;;;;;;4.47;4.07;;;9.40;99.90;;;;;;5067393;28;20556;-25
2024/02/13 01:18:11;;;;;;;4.60;3.63;;;9.40;99.90;;;;;;5086568;28;20537;-25
2024/02/13 01:20:39;;;;;;;6.53;4.47;;;9.40;99.90;;;;;;5049731;28;20457;-27
2024/02/13 01:23:08;;;;;;;5.70;4.07;;;9.40;99.90;;;;;;5081441;28;20775;-25
2024/02/13 01:25:35;;;;;;;5.30;3.80;;;9.40;99.90;;;;;;5062890;28;20982;-25
2024/02/13 01:28:03;;;;;;;5.80;5.00;;;9.40;99.90;;;;;;5069838;28;20420;-25
2024/02/13 01:30:31;;;;;;;4.23;3.83;;;9.40;99.90;;;;;;5071382;28;20832;-25
2024/02/13 01:32:58;;;;;;;5.00;4.03;;;9.30;99.90;;;;;;5057147;28;20520;-25
2024/02/13 01:35:24;;;;;;;5.63;4.47;;;9.30;99.90;;;;;;5084005;28;20206;-25
2024/02/13 01:37:50;;;;;;;4.83;3.90;;;9.30;99.90;;;;;;5081862;28;20452;-25
2024/02/13 01:40:17;;;;;;;5.13;4.30;;;9.30;99.90;;;;;;5064539;28;20504;-25
2024/02/13 01:42:48;;;;;;;10.07;4.67;;;9.30;99.90;;;;;;5070687;28;20819;-25
2024/02/13 01:45:14;;;;;;;5.70;4.20;;;9.30;99.90;;;;;;5091166;28;21233;-25
2024/02/13 01:47:56;;;;;;;5.97;4.63;;;9.30;99.90;;;;;;5084578;28;21005;-25
2024/02/13 01:50:22;;;;;;;4.80;4.30;;;9.30;99.90;;;;;;5072171;28;20552;-25
2024/02/13 01:52:53;;;;;;;5.30;4.40;;;9.30;99.90;;;;;;5050296;28;20523;-24
2024/02/13 01:55:23;;;;;;;7.77;4.80;;;9.30;99.90;;;;;;5043714;28;21410;-25
2024/02/13 01:57:55;;;;;;;5.90;5.30;;;9.30;99.90;;;;;;5052851;28;21049;-25
2024/02/13 02:00:24;;;;;;;6.30;5.57;;;9.30;99.90;;;;;;5088016;28;20433;-25
2024/02/13 02:02:51;;;;;;;5.93;4.50;;;9.20;99.90;;;;;;5082938;28;20463;-25
2024/02/13 02:05:20;;;;;;;7.10;5.17;;;9.20;99.90;;;;;;5096138;28;20482;-27
2024/02/13 02:07:59;;;;;;;6.20;5.03;;;9.20;99.90;;;;;;5070168;28;20432;-25
2024/02/13 02:10:25;;;;;;;7.60;5.40;;;9.20;99.90;;;;;;5097974;28;20544;-25
2024/02/13 02:12:58;;;;;;;5.40;4.70;;;9.20;99.90;;;;;;5090904;28;20452;-25
2024/02/13 02:15:26;;;;;;;7.20;5.90;;;9.20;99.90;;;;;;5056441;28;20432;-24
2024/02/13 02:17:53;;;;;;;7.80;5.40;;;9.20;99.90;;;;;;5088419;28;20536;-25
2024/02/13 02:20:21;;;;;;;9.70;5.90;;;9.20;99.90;;;;;;5059621;28;20444;-25
2024/02/13 02:22:48;;;;;;;7.83;4.90;;;9.20;99.90;;;;;;5089620;27;20457;-25
2024/02/13 02:25:18;;;;;;;9.93;5.43;;;9.20;99.90;;;;;;5082593;28;20420;-25
2024/02/13 02:28:06;;;;;;;7.80;5.63;;;9.20;99.90;;;;;;5087100;28;20870;-24
2024/02/13 02:30:35;;;;;;;8.00;5.50;;;9.20;99.90;;;;;;5071865;28;20487;-24
2024/02/13 02:33:04;;;;;;;8.10;5.83;;;9.20;99.90;;;;;;5096931;28;21167;-25
2024/02/13 02:35:30;;;;;;;6.43;5.63;;;9.20;99.90;;;;;;5088498;28;20543;-25
2024/02/13 02:37:57;;;;;;;6.27;5.67;;;9.20;99.90;;;;;;5087163;28;20481;-25
2024/02/13 02:40:26;;;;;;;7.93;5.77;;;9.10;99.90;;;;;;5067047;28;21105;-25
2024/02/13 02:42:55;;;;;;;7.23;5.93;;;9.10;99.90;;;;;;5089459;28;20488;-24
2024/02/13 02:45:23;;;;;;;7.57;6.27;;;9.10;99.90;;;;;;5055739;28;20444;-25
2024/02/13 02:47:51;;;;;;;7.50;5.90;;;9.10;99.90;;;;;;5082689;28;20416;-25
2024/02/13 02:50:17;;;;;;;7.87;5.87;;;9.10;99.90;;;;;;5055088;28;20544;-25
2024/02/13 02:52:44;;;;;;;6.93;6.30;;;9.10;99.90;;;;;;5089237;28;20453;-25
2024/02/13 02:55:10;;;;;;;7.03;5.50;;;9.10;99.90;;;;;;5089145;28;20927;-25
2024/02/13 02:57:37;;;;;;;8.03;6.30;;;9.10;99.90;;;;;;5082574;28;20424;-25
2024/02/13 03:00:12;;;;;;;8.80;6.33;;;9.10;99.90;;;;;;5068027;28;20825;-25
2024/02/13 03:02:55;;;;;;;6.40;5.73;;;9.10;99.90;;;;;;5080012;28;20448;-25
2024/02/13 03:05:21;;;;;;;6.63;5.77;;;9.10;99.90;;;;;;5064484;28;20487;-25
2024/02/13 03:07:47;;;;;;;7.03;6.30;;;9.10;99.90;;;;;;5077201;28;20424;-24
2024/02/13 03:10:13;;;;;;;6.37;5.77;;;9.10;99.90;;;;;;5089346;28;20496;-25
2024/02/13 03:12:46;;;;;;;10.27;5.73;;;9.10;99.90;;;;;;5038693;28;20475;-25
2024/02/13 03:15:12;;;;;;;9.57;6.60;;;9.10;99.90;;;;;;5069940;28;20424;-25
2024/02/13 03:17:41;;;;;;;7.10;6.40;;;9.00;99.90;;;;;;5067509;28;20441;-25
2024/02/13 03:20:10;;;;;;;7.43;6.17;;;9.10;99.90;;;;;;5090051;28;20424;-25
2024/02/13 03:22:53;;;;;;;6.43;5.83;;;9.00;99.90;;;;;;5062803;28;21349;-25
2024/02/13 03:25:26;;;;;;;7.73;6.33;;;9.00;99.90;;;;;;5069251;28;20428;-26
2024/02/13 03:28:11;;;;;;;7.77;6.30;;;9.00;99.90;;;;;;5086471;28;20455;-25
2024/02/13 03:30:39;;;;;;;7.70;6.10;;;9.00;99.90;;;;;;5093678;28;21045;-26
2024/02/13 03:33:07;;;;;;;7.50;6.47;;;9.00;99.90;;;;;;5096794;28;20544;-25
2024/02/13 03:35:35;;;;;;;8.37;6.17;;;9.00;99.90;;;;;;5086277;28;20798;-25
2024/02/13 03:38:01;;;;;;;11.20;7.43;;;9.00;99.90;;;;;;5062691;28;20530;-25
2024/02/13 03:40:27;;;;;;;8.20;5.70;;;8.90;99.90;;;;;;5088218;28;20601;-24
2024/02/13 03:42:53;;;;;;;6.97;5.90;;;9.00;99.90;;;;;;5068724;28;20448;-24
2024/02/13 03:45:19;;;;;;;7.57;6.80;;;9.00;99.90;;;;;;5091292;28;20894;-25
2024/02/13 03:47:59;;;;;;;8.10;6.60;;;9.00;99.90;;;;;;5080458;28;20217;-25
2024/02/13 03:50:26;;;;;;;8.90;7.07;;;9.00;99.90;;;;;;5093232;28;20991;-26
2024/02/13 03:52:56;;;;;;;10.00;6.70;;;9.00;99.90;;;;;;5089970;28;21315;-26
2024/02/13 03:55:24;;;;;;;7.00;6.13;;;8.90;99.90;;;;;;5085650;28;20917;-25
2024/02/13 03:57:55;;;;;;;7.17;6.47;;;8.90;99.90;;;;;;5061530;28;20896;-25
2024/02/13 04:00:24;;;;;;;9.23;6.37;;;8.90;99.90;;;;;;5072508;28;20429;-25
2024/02/13 04:02:55;;;;;;;7.13;6.43;;;8.90;99.90;;;;;;5088676;28;20501;-27
2024/02/13 04:05:21;;;;;;;9.73;7.07;;;8.90;99.90;;;;;;5064412;28;20553;-25
2024/02/13 04:07:47;;;;;;;7.43;6.67;;;8.90;99.90;;;;;;5085366;28;20985;-25
2024/02/13 04:10:15;;;;;;;6.43;5.80;;;8.90;99.90;;;;;;5080928;28;20551;-24
2024/02/13 04:12:51;;;;;;;7.70;6.10;;;8.90;99.90;;;;;;5091667;28;20561;-25
2024/02/13 04:15:17;;;;;;;7.33;5.87;;;8.90;99.90;;;;;;5087833;28;20515;-24
2024/02/13 04:17:51;;;;;;;8.03;6.60;;;8.90;99.90;;;;;;5064210;28;20428;-25
2024/02/13 04:20:17;;;;;;;6.80;6.10;;;8.90;99.90;;;;;;5089194;28;20459;-23
2024/02/13 04:22:43;;;;;;;8.13;7.03;;;8.90;99.90;;;;;;5085597;28;20534;-23
2024/02/13 04:25:10;;;;;;;7.50;6.63;;;8.80;99.90;;;;;;5056119;28;21053;-23
2024/02/13 04:27:37;;;;;;;8.33;7.17;;;8.80;99.90;;;;;;5092414;28;20566;-23
2024/02/13 04:30:11;;;;;;;8.00;6.13;;;8.80;99.90;;;;;;5090160;28;20444;-22
2024/02/13 04:32:37;;;;;;;9.07;6.97;;;8.80;99.90;;;;;;5060330;28;20449;-25
2024/02/13 04:35:07;;;;;;;9.73;7.20;;;8.80;99.90;;;;;;5067661;28;20473;-25
2024/02/13 04:37:34;;;;;;;13.30;7.33;;;8.80;99.90;;;;;;5094325;28;20455;-25
2024/02/13 04:39:59;;;;;;;8.13;6.77;;;8.80;99.90;;;;;;5088185;28;20525;-26
2024/02/13 04:42:33;;;;;;;8.13;6.90;;;8.80;99.90;;;;;;5068329;28;20597;-25
2024/02/13 04:45:00;;;;;;;8.27;6.70;;;8.80;99.90;;;;;;5075538;28;20508;-25
2024/02/13 04:47:30;;;;;;;11.10;6.57;;;8.80;99.90;;;;;;5065089;28;20432;-26
2024/02/13 04:50:00;;;;;;;9.13;7.03;;;8.80;99.90;;;;;;5084730;28;20498;-25
2024/02/13 04:52:32;;;;;;;8.87;6.90;;;8.80;99.90;;;;;;5057589;28;20452;-25
2024/02/13 04:55:00;;;;;;;13.80;7.60;;;8.80;99.90;;;;;;5050097;28;20445;-28
2024/02/13 04:57:27;;;;;;;8.37;6.30;;;8.80;99.90;;;;;;5053261;28;20433;-24
2024/02/13 04:59:57;;;;;;;8.10;6.60;;;8.80;99.90;;;;;;5040117;28;20890;-26
2024/02/13 05:02:26;;;;;;;10.50;6.90;;;8.80;99.90;;;;;;5050093;28;20452;-25
2024/02/13 05:07:41;;;;;;;8.23;6.73;;;8.70;99.90;;;;;;5090053;28;20877;-25
2024/02/13 05:10:07;;;;;;;7.90;7.10;;;8.70;99.90;;;;;;5053340;28;20474;-25
2024/02/13 05:12:48;;;;;;;7.20;6.17;;;8.70;99.90;;;;;;5059387;28;20438;-25
2024/02/13 05:15:21;;;;;;;9.60;7.00;;;8.70;99.90;;;;;;5058570;28;20425;-25
2024/02/13 05:17:48;;;;;;;8.00;6.67;;;8.70;99.90;;;;;;5089387;28;20475;-25
2024/02/13 05:20:17;;;;;;;8.27;7.10;;;8.70;99.90;;;;;;5093553;28;20554;-25
2024/02/13 05:22:46;;;;;;;8.60;7.23;;;8.70;99.90;;;;;;5064450;28;21341;-25
2024/02/13 05:25:13;;;;;;;9.93;7.40;;;8.70;99.90;;;;;;5089513;28;20551;-25
2024/02/13 05:27:39;;;;;;;7.33;6.50;;;8.70;99.90;;;;;;5082303;28;20472;-28
2024/02/13 05:30:09;;;;;;;8.97;6.37;;;8.70;99.90;;;;;;5072668;28;20472;-24
2024/02/13 05:32:38;;;;;;;9.10;7.10;;;8.70;99.90;;;;;;5086455;28;20537;-25
2024/02/13 05:35:08;;;;;;;8.87;6.93;;;8.70;99.90;;;;;;5079076;28;20518;-25
2024/02/13 05:37:37;;;;;;;7.50;6.20;;;8.70;99.90;;;;;;5091627;28;20437;-25
2024/02/13 05:40:10;;;;;;;10.10;8.23;;;8.60;99.90;;;;;;5059147;28;20793;-25
2024/02/13 05:42:35;;;;;;;10.00;7.07;;;8.60;99.90;;;;;;5097340;28;20547;-25
2024/02/13 05:45:02;;;;;;;8.57;6.90;;;8.60;99.90;;;;;;5095920;28;20523;-25
2024/02/13 05:47:35;;;;;;;10.40;7.50;;;8.60;99.90;;;;;;5068029;28;20428;-25
2024/02/13 05:50:06;;;;;;;9.30;7.03;;;8.60;99.90;;;;;;5087456;28;20424;-25
2024/02/13 05:52:35;;;;;;;7.63;6.50;;;8.70;99.90;;;;;;5087773;28;20966;-25
2024/02/13 05:55:06;;;;;;;8.93;7.10;;;8.60;99.90;;;;;;5096903;28;20476;-26
2024/02/13 05:57:34;;;;;;;8.70;6.70;;;8.60;99.90;;;;;;5050875;28;20459;-25
2024/02/13 06:00:09;;;;;;;9.77;6.60;;;8.60;99.90;;;;;;5093425;28;20434;-25
2024/02/13 06:02:38;;;;;;;8.50;6.53;;;8.60;99.90;;;;;;5094352;28;21025;-25
2024/02/13 06:05:10;;;;;;;8.97;6.50;;;8.60;99.90;;;;;;5091907;28;20434;-25
2024/02/13 06:07:40;;;;;;;12.70;6.70;;;8.60;99.90;;;;;;5094752;28;20950;-24
2024/02/13 06:10:10;;;;;;;9.27;6.23;;;8.60;99.90;;;;;;5059192;28;21255;-24
2024/02/13 06:12:38;;;;;;;7.57;6.10;;;8.60;99.90;;;;;;5073260;28;20483;-24
2024/02/13 06:15:06;;;;;;;6.43;5.73;;;8.50;99.90;;;;;;5076346;28;20486;-25
2024/02/13 06:17:36;;;;;;;7.03;5.43;;;8.50;99.90;;;;;;5055945;28;20880;-25
2024/02/13 06:20:08;;;;;;;8.83;6.43;;;8.50;99.90;;;;;;5075454;28;20441;-26
2024/02/13 06:22:37;;;;;;;7.90;5.30;;;8.60;99.90;;;;;;5087837;28;20445;-27
2024/02/13 06:25:05;;;;;;;6.17;5.50;;;8.60;99.90;;;;;;5052834;28;20428;-25
2024/02/13 06:27:35;;;;;;;7.10;5.57;;;8.60;99.90;;;;;;5073009;28;20456;-24
2024/02/13 06:30:03;;;;;;;7.47;5.50;;;8.50;99.90;;;;;;5089325;28;21028;-24
2024/02/13 06:32:36;;;;;;;6.23;5.30;;;8.50;99.90;;;;;;5056813;28;20452;-25
2024/02/13 06:35:07;;;;;;;6.50;5.80;;;8.50;99.90;;;;;;5067091;28;20444;-24
2024/02/13 06:37:53;;;;;;;8.27;5.60;;;8.50;99.90;;;;;;5082469;28;20433;-24
2024/02/13 06:40:21;;;;;;;7.50;5.40;;;8.50;99.90;;;;;;5091047;28;20945;-26
2024/02/13 06:42:47;;;;;;;9.60;5.60;;;8.50;99.90;;;;;;5070095;28;20985;-24
2024/02/13 06:45:16;;;;;;;6.77;5.00;;;8.50;99.90;;;;;;5052440;28;20441;-25
2024/02/13 06:47:41;;;;;;;9.37;5.27;;;8.50;99.90;;;;;;5062790;28;20452;-24
2024/02/13 06:50:11;;;;;;;6.20;4.50;;;8.50;99.90;;;;;;5082868;28;20854;-25
2024/02/13 06:52:38;;;;;;;5.23;4.73;;;8.50;99.90;;;;;;5063342;28;20458;-24
2024/02/13 06:55:07;;;;;;;6.40;4.53;;;8.50;99.90;;;;;;5092458;28;20437;-25
2024/02/13 06:57:52;;;;;;;6.10;5.00;;;8.40;99.90;;;;;;5087137;28;21336;-25
2024/02/13 07:00:20;;;;;;;7.30;5.83;;;8.40;99.90;;;;;;5035147;28;20430;-25
2024/02/13 07:02:50;;;;;;;6.40;4.63;;;8.40;99.90;;;;;;5067634;28;20456;-24
2024/02/13 07:05:17;;;;;;;6.63;4.87;;;8.40;99.90;;;;;;5057295;28;20493;-24
2024/02/13 07:07:43;;;;;;;7.27;5.20;;;8.40;99.90;;;;;;5090517;28;20420;-24
2024/02/13 07:10:09;;;;;;;5.17;4.60;;;8.40;99.90;;;;;;5063061;28;20436;-24
2024/02/13 07:12:53;;;;;;;9.10;5.60;;;8.40;99.90;;;;;;5084784;28;21294;-24
2024/02/13 07:15:23;;;;;;;8.23;4.60;;;8.40;99.90;;;;;;5098048;28;20517;-27
2024/02/13 07:17:49;;;;;;;9.33;4.60;;;8.40;99.90;;;;;;5097722;28;20420;-26
2024/02/13 07:20:16;;;;;;;4.90;4.13;;;8.40;99.90;;;;;;5065778;28;20459;-26
2024/02/13 07:22:42;;;;;;;6.03;4.90;;;8.40;99.90;;;;;;5065389;28;20446;-25
2024/02/13 07:25:09;;;;;;;5.43;4.40;;;8.40;99.90;;;;;;5066390;28;20424;-26
2024/02/13 07:27:40;;;;;;;6.10;4.47;;;8.40;99.90;;;;;;5063453;28;20449;-27
2024/02/13 07:30:07;;;;;;;5.80;4.50;;;8.40;99.90;;;;;;5040456;28;20416;-25
2024/02/13 07:32:36;;;;;;;4.30;3.90;;;8.40;99.90;;;;;;5097625;28;20453;-26
2024/02/13 07:35:04;;;;;;;9.40;4.90;;;8.40;99.90;;;;;;5088724;28;20425;-31
2024/02/13 07:37:36;;;;;;;5.30;4.27;;;8.40;99.90;;;;;;5050608;28;20432;-26
2024/02/13 07:40:07;;;;;;;5.17;4.67;;;8.40;99.90;;;;;;5068905;28;20446;-27
2024/02/13 07:42:34;;;;;;;5.67;3.70;;;8.30;99.90;;;;;;5063813;28;20759;-28
2024/02/13 07:45:03;;;;;;;8.83;4.20;;;8.30;99.90;;;;;;5097745;28;20502;-27
2024/02/13 07:47:31;;;;;;;4.17;3.77;;;8.30;99.90;;;;;;5064105;28;20476;-26
2024/02/13 07:50:00;;;;;;;5.73;4.50;;;8.30;99.90;;;;;;5065648;28;20436;-27
2024/02/13 07:52:52;;;;;;;6.60;3.20;;;8.40;99.90;;;;;;5104832;22;20455;31
2024/02/13 07:55:20;;;;;;;7.20;4.67;;;8.40;99.90;;;;;;4961295;28;20909;-27
2024/02/13 07:57:50;;;;;;;4.43;4.00;;;8.30;99.90;;;;;;4960182;28;20403;-27
2024/02/13 08:00:20;;;;;;;5.13;3.87;;;8.30;99.90;;;;;;4988006;28;20529;-28
2024/02/13 08:02:49;;;;;;;6.80;4.20;;;8.30;99.90;;;;;;4989533;28;20441;-27
2024/02/13 08:05:16;;;;;;;4.20;3.80;;;8.30;99.90;;;;;;4984180;28;20427;-27
2024/02/13 08:07:42;;;;;;;7.30;4.07;;;8.30;99.90;;;;;;5000709;28;20475;-29
2024/02/13 08:10:13;;;;;;;4.20;3.80;;;8.30;99.90;;;;;;5001493;28;20408;-27
2024/02/13 08:12:39;;;;;;;5.20;4.00;;;8.30;99.90;;;;;;4992013;28;20464;-27
2024/02/13 08:15:08;;;;;;;6.90;4.47;;;8.30;99.90;;;;;;4982895;28;20979;-28
2024/02/13 08:17:36;;;;;;;4.90;4.10;;;8.30;99.90;;;;;;4992259;28;20575;-26
2024/02/13 08:20:04;;;;;;;5.60;3.50;;;8.30;99.90;;;;;;5000217;28;20523;-26
2024/02/13 08:22:31;;;;;;;4.83;4.00;;;8.30;99.90;;;;;;4968659;28;21023;-27
2024/02/13 08:25:00;;;;;;;6.20;3.90;;;8.30;99.90;;;;;;4998115;28;20436;-26
2024/02/13 08:27:27;;;;;;;5.27;4.37;;;8.30;99.90;;;;;;4994912;28;20520;-26
2024/02/13 08:29:54;;;;;;;5.77;4.07;;;8.30;99.90;;;;;;4988412;28;20545;-26
2024/02/13 08:32:20;;;;;;;4.50;3.47;;;8.30;99.90;;;;;;4988623;28;20489;-27
2024/02/13 08:34:46;;;;;;;5.77;4.10;;;8.30;99.90;;;;;;4968333;28;20460;-26
2024/02/13 08:37:13;;;;;;;8.17;3.90;;;8.30;99.90;;;;;;4988290;28;20206;-26
2024/02/13 08:39:39;;;;;;;4.40;4.00;;;8.30;99.90;;;;;;4982609;28;20437;-27
2024/02/13 08:42:06;;;;;;;7.80;3.40;;;8.30;99.90;;;;;;4990188;28;20493;-27
2024/02/13 08:44:34;;;;;;;5.27;3.10;;;8.30;99.90;;;;;;4986936;28;21258;-26
2024/02/13 08:47:00;;;;;;;4.30;3.47;;;8.30;99.90;;;;;;4966655;28;20429;-27
2024/02/13 08:49:27;;;;;;;5.30;3.97;;;8.30;99.90;;;;;;4962208;28;20433;-26
2024/02/13 08:51:53;;;;;;;5.80;3.70;;;8.30;99.90;;;;;;4980013;28;20572;-27
2024/02/13 08:54:19;;;;;;;7.60;3.80;;;8.30;99.90;;;;;;4980072;28;20552;-26
2024/02/13 08:56:47;;;;;;;4.40;3.47;;;8.30;99.90;;;;;;4971606;28;21663;-26
2024/02/13 08:59:13;;;;;;;7.53;4.00;;;8.30;99.90;;;;;;4987834;28;20905;-27
2024/02/13 09:01:40;;;;;;;5.57;3.70;;;8.30;99.90;;;;;;4987110;28;20455;-25
2024/02/13 09:04:06;;;;;;;5.83;3.80;;;8.30;99.90;;;;;;4983512;28;21238;-26
2024/02/13 09:06:35;;;;;;;4.93;3.20;;;8.30;99.90;;;;;;4980841;28;20425;-26
2024/02/13 09:09:01;;;;;;;5.37;3.40;;;8.30;99.90;;;;;;4981359;28;20476;-26
2024/02/13 09:11:30;;;;;;;4.97;3.37;;;8.30;99.90;;;;;;4980798;28;20497;-27
2024/02/13 09:13:56;;;;;;;3.57;2.67;;;8.30;99.90;;;;;;4963283;28;20504;-27
2024/02/13 09:16:22;;;;;;;4.03;3.07;;;8.30;99.90;;;;;;4963065;28;20433;-27
2024/02/13 09:18:49;;;;;;;7.40;3.60;;;8.30;99.90;;;;;;4974608;28;20499;-26
2024/02/13 09:21:17;;;;;;;5.50;4.00;;;8.30;99.90;;;;;;4954965;28;20457;-25
2024/02/13 09:23:47;;;;;;;3.30;3.00;;;8.30;99.90;;;;;;4963696;28;20468;-25
2024/02/13 09:26:14;;;;;;;3.60;2.80;;;8.30;99.90;;;;;;4981961;28;20449;-28
2024/02/13 09:28:46;;;;;;;6.53;3.20;;;8.30;99.90;;;;;;4982343;28;20454;-26
2024/02/13 09:31:12;;;;;;;4.67;3.13;;;8.30;99.90;;;;;;4983112;28;20468;-27
2024/02/13 09:33:42;;;;;;;4.07;3.37;;;8.30;99.90;;;;;;4960689;28;20466;-26
2024/02/13 09:36:08;;;;;;;5.47;2.90;;;8.30;99.90;;;;;;4981054;28;20450;-26
2024/02/13 09:38:38;;;;;;;4.90;3.00;;;8.30;99.90;;;;;;4982280;28;20485;-25
2024/02/13 09:41:06;;;;;;;4.60;3.47;;;8.40;99.90;;;;;;4932674;28;20465;-26
2024/02/13 09:43:32;;;;;;;5.27;3.10;;;8.40;99.90;;;;;;4970134;28;20557;-27
2024/02/13 09:45:59;;;;;;;5.50;3.13;;;8.40;99.90;;;;;;4983078;28;20520;-26
2024/02/13 09:48:35;;;;;;;5.83;3.37;;;8.40;99.90;;;;;;4991944;28;20476;-25
2024/02/13 09:51:10;;;;;;;5.00;3.60;;;8.40;99.90;;;;;;4983188;28;20472;-26
2024/02/13 09:53:45;;;;;;;2.77;2.50;;;8.40;99.90;;;;;;4943313;28;20477;-25
2024/02/13 09:56:14;;;;;;;4.40;3.00;;;8.40;99.90;;;;;;4979928;28;20442;-26
2024/02/13 09:58:46;;;;;;;6.50;2.77;;;8.40;99.90;;;;;;4976174;28;20430;-25
2024/02/13 10:01:13;;;;;;;4.20;2.70;;;8.40;99.90;;;;;;4957323;28;20425;-25
2024/02/13 10:03:39;;;;;;;3.07;2.40;;;8.40;99.90;;;;;;4959704;28;20497;-25
2024/02/13 10:06:14;;;;;;;3.40;2.90;;;8.40;99.90;;;;;;4969380;28;20446;-26
2024/02/13 10:08:49;;;;;;;5.60;2.50;;;8.40;99.90;;;;;;4979478;28;20421;-28
2024/02/13 10:11:16;;;;;;;4.50;3.10;;;8.50;99.90;;;;;;4963552;28;20469;-28
2024/02/13 10:13:42;;;;;;;4.07;2.87;;;8.50;99.90;;;;;;4980690;28;20456;-26
2024/02/13 10:16:28;;;;;;;4.17;2.73;;;8.50;99.90;;;;;;4968518;28;20421;-27
2024/02/13 10:19:01;;;;;;;4.03;2.73;;;8.50;99.90;;;;;;4963611;28;20532;-26
2024/02/13 10:21:29;;;;;;;4.70;2.80;;;8.50;99.90;;;;;;4980304;28;20422;-26
2024/02/13 10:24:15;;;;;;;4.33;2.50;;;8.50;99.90;;;;;;4946583;28;21133;-25
2024/02/13 10:26:44;;;;;;;3.73;2.17;;;8.50;99.90;;;;;;4983810;28;20421;-26
2024/02/13 10:29:12;;;;;;;3.70;2.50;;;8.60;99.90;;;;;;4983800;28;20460;-26
2024/02/13 10:31:38;;;;;;;4.60;2.53;;;8.50;99.90;;;;;;4983772;28;20457;-26
2024/02/13 10:34:08;;;;;;;3.57;2.07;;;8.60;99.90;;;;;;4984013;28;21086;-25
2024/02/13 10:36:41;;;;;;;4.93;2.90;;;8.60;99.90;;;;;;4965886;28;20507;-26
2024/02/13 10:39:12;;;;;;;4.83;2.33;;;8.60;99.90;;;;;;4966214;28;20465;-26
2024/02/13 10:41:43;;;;;;;2.50;2.00;;;8.60;99.90;;;;;;4982736;28;20437;-27
2024/02/13 10:44:10;;;;;;;4.80;2.43;;;8.60;99.90;;;;;;4983765;28;20504;-26
2024/02/13 10:46:42;;;;;;;4.27;2.30;;;8.70;99.90;;;;;;4974269;28;20425;-28
2024/02/13 10:49:33;;;;;;;3.43;2.60;;;8.60;99.90;;;;;;4984280;28;21165;-27
2024/02/13 10:52:05;;;;;;;3.43;2.33;;;8.60;99.90;;;;;;4985043;28;20417;-25
2024/02/13 10:54:35;;;;;;;5.37;2.80;;;8.70;99.90;;;;;;4968386;28;20514;-27
2024/02/13 10:57:06;;;;;;;3.13;2.50;;;8.70;99.90;;;;;;4986029;28;20440;-26
2024/02/13 10:59:35;;;;;;;5.43;2.20;;;8.70;99.90;;;;;;4969804;28;20825;-27
2024/02/13 11:02:01;;;;;;;5.63;2.67;;;8.70;99.90;;;;;;4943941;28;21012;-26
2024/02/13 11:04:27;;;;;;;4.23;1.80;;;8.70;99.90;;;;;;4983725;28;20464;-26
2024/02/13 11:06:58;;;;;;;6.23;3.00;;;8.70;99.90;;;;;;4984121;28;20468;-25
2024/02/13 11:09:25;;;;;;;1.90;1.80;;;8.70;99.90;;;;;;4962530;28;20482;-25
2024/02/13 11:11:52;;;;;;;5.47;2.90;;;8.70;99.90;;;;;;4988340;28;20433;-25
2024/02/13 11:14:22;;;;;;;4.30;2.17;;;8.70;99.90;;;;;;4988186;28;20869;-27
2024/02/13 11:16:51;;;;;;;4.70;2.63;;;8.80;99.90;;;;;;4983862;28;20433;-26
2024/02/13 11:19:42;;;;;;;2.27;2.10;;;8.80;99.90;;;;;;4982683;28;20464;-26
2024/02/13 11:22:08;;;;;;;5.10;2.20;;;8.80;99.90;;;;;;4969167;28;20507;-26
2024/02/13 11:25:11;;;;;;;5.27;2.50;;;8.80;99.90;;;;;;4952239;28;20449;-26
2024/02/13 11:27:57;;;;;;;3.70;2.17;;;8.80;99.90;;;;;;4963182;28;20428;-26
2024/02/13 11:30:24;;;;;;;2.90;1.97;;;8.80;99.90;;;;;;4982622;28;20437;-27
2024/02/13 11:32:58;;;;;;;4.03;2.50;;;8.90;99.90;;;;;;4979745;28;20445;-27
2024/02/13 11:35:29;;;;;;;3.10;2.37;;;8.90;99.90;;;;;;4980018;28;20488;-25
2024/02/13 11:38:01;;;;;;;4.47;2.33;;;8.90;99.90;;;;;;4977881;28;20960;-27
2024/02/13 11:40:29;;;;;;;3.17;1.80;;;8.90;99.90;;;;;;4980315;28;20476;-25
2024/02/13 11:43:19;;;;;;;4.57;2.10;;;8.90;99.90;;;;;;4963870;28;20562;-25
2024/02/13 11:45:45;;;;;;;3.00;2.20;;;8.90;99.90;;;;;;4963747;28;20433;-25
2024/02/13 11:48:23;;;;;;;5.13;2.07;;;8.90;99.90;;;;;;4980694;28;21238;-26
2024/02/13 11:50:50;;;;;;;6.07;2.07;;;8.90;99.90;;;;;;4980754;28;20480;-25
2024/02/13 11:53:17;;;;;;;3.80;2.03;;;9.00;99.90;;;;;;4964782;28;20466;-26
2024/02/13 11:55:44;;;;;;;2.60;2.07;;;9.00;99.90;;;;;;4968724;28;20561;-27
2024/02/13 11:58:21;;;;;;;3.53;2.00;;;9.00;99.90;;;;;;4979357;28;20457;-27
2024/02/13 12:01:02;;;;;;;4.83;2.30;;;9.00;99.90;;;;;;4980958;28;20828;-26
2024/02/13 12:03:30;;;;;;;2.43;1.90;;;9.00;99.90;;;;;;4962295;28;20946;-25
2024/02/13 12:05:57;;;;;;;6.00;2.70;;;9.00;99.90;;;;;;4980146;28;20575;-27
2024/02/13 12:08:24;;;;;;;1.87;1.77;;;9.00;99.90;;;;;;4979642;28;20474;-26
2024/02/13 12:10:52;;;;;;;3.60;2.20;;;9.00;99.90;;;;;;4962536;28;20460;-25
2024/02/13 12:13:19;;;;;;;3.87;2.10;;;9.00;99.90;;;;;;4979940;28;20540;-23
2024/02/13 12:15:47;;;;;;;3.13;1.70;;;9.10;99.90;;;;;;4963873;28;20438;-25
2024/02/13 12:18:17;;;;;;;7.70;2.27;;;9.10;99.90;;;;;;4977444;28;20464;-25
2024/02/13 12:20:52;;;;;;;2.43;1.70;;;9.10;99.90;;;;;;4978924;28;21111;-26
2024/02/13 12:23:20;;;;;;;4.07;2.10;;;9.10;99.90;;;;;;4978753;28;20496;-28
2024/02/13 12:25:46;;;;;;;1.90;1.60;;;9.10;99.90;;;;;;4964990;28;20481;-26
2024/02/13 12:28:17;;;;;;;3.63;2.20;;;9.10;99.90;;;;;;4979386;28;20533;-26
2024/02/13 12:30:48;;;;;;;2.27;1.90;;;9.10;99.90;;;;;;4979457;28;20429;-27
2024/02/13 12:33:23;;;;;;;2.57;2.37;;;9.10;99.90;;;;;;4975037;28;21330;-25
2024/02/13 12:35:59;;;;;;;2.40;2.10;;;9.20;99.90;;;;;;4979234;28;21190;-27
2024/02/13 12:38:29;;;;;;;5.50;2.03;;;9.20;99.90;;;;;;4961171;28;20476;-28
2024/02/13 12:41:00;;;;;;;6.40;2.20;;;9.20;99.90;;;;;;4952967;28;21082;-27
2024/02/13 12:43:29;;;;;;;2.47;2.10;;;9.20;99.90;;;;;;4972196;28;20829;-26
2024/02/13 12:46:02;;;;;;;6.60;2.20;;;9.20;99.90;;;;;;4978931;28;20426;-26
2024/02/13 12:48:31;;;;;;;3.17;2.00;;;9.20;99.90;;;;;;4978455;28;20788;-27
2024/02/13 12:51:02;;;;;;;3.13;2.30;;;9.20;99.90;;;;;;4961891;28;20982;-26
2024/02/13 12:53:32;;;;;;;2.87;1.97;;;9.20;99.90;;;;;;4978129;28;20465;-27
2024/02/13 12:55:59;;;;;;;2.50;1.70;;;9.20;99.90;;;;;;4984241;28;20843;-27
2024/02/13 12:58:25;;;;;;;5.73;2.43;;;9.30;99.90;;;;;;4965599;28;20429;-27
2024/02/13 13:00:52;;;;;;;6.83;2.23;;;9.30;99.90;;;;;;4983256;28;20576;-24
2024/02/13 13:03:19;;;;;;;3.30;2.40;;;9.30;99.90;;;;;;4983503;28;20445;-25
2024/02/13 13:05:49;;;;;;;3.07;1.70;;;9.30;99.90;;;;;;4966253;28;20512;-25
2024/02/13 13:08:17;;;;;;;3.40;2.20;;;9.30;99.90;;;;;;4983334;28;21117;-28
2024/02/13 13:10:44;;;;;;;7.47;2.10;;;9.30;99.90;;;;;;4984076;28;20418;-26
2024/02/13 13:13:12;;;;;;;2.80;1.87;;;9.30;99.90;;;;;;4983603;28;20480;-26